sensor_id;sensor_type;location;lat;lon;timestamp;temperature;humidity
23991;DHT22;12205;50.600;4.608;2022-11-04T00:02:06;9.10;99.90
23991;DHT22;12205;50.600;4.608;2022-11-04T00:04:35;9.20;99.90
23991;DHT22;12205;50.600;4.608;2022-11-04T00:07:03;9.10;99.90
23991;DHT22;12205;50.600;4.608;2022-11-04T00:09:50;9.10;99.90
23991;DHT22;12205;50.600;4.608;2022-11-04T00:12:18;9.10;99.90
23991;DHT22;12205;50.600;4.608;2022-11-04T00:14:50;9.10;99.90
23991;DHT22;12205;50.600;4.608;2022-11-04T00:17:18;9.10;99.90
23991;DHT22;12205;50.600;4.608;2022-11-04T00:19:46;9.00;99.90
23991;DHT22;12205;50.600;4.608;2022-11-04T00:22:32;9.00;99.90
23991;DHT22;12205;50.600;4.608;2022-11-04T00:25:17;9.00;99.90
23991;DHT22;12205;50.600;4.608;2022-11-04T00:28:03;8.90;99.90
23991;DHT22;12205;50.600;4.608;2022-11-04T00:30:54;8.90;99.90
23991;DHT22;12205;50.600;4.608;2022-11-04T00:33:22;8.90;99.90
23991;DHT22;12205;50.600;4.608;2022-11-04T00:35:54;8.90;99.90
23991;DHT22;12205;50.600;4.608;2022-11-04T00:38:23;9.00;99.90
23991;DHT22;12205;50.600;4.608;2022-11-04T00:40:51;9.00;99.90
23991;DHT22;12205;50.600;4.608;2022-11-04T00:43:18;9.00;99.90
23991;DHT22;12205;50.600;4.608;2022-11-04T00:45:46;9.00;99.90
23991;DHT22;12205;50.600;4.608;2022-11-04T00:48:13;9.00;99.90
23991;DHT22;12205;50.600;4.608;2022-11-04T00:50:41;9.00;99.90
23991;DHT22;12205;50.600;4.608;2022-11-04T00:53:12;9.00;99.90
23991;DHT22;12205;50.600;4.608;2022-11-04T00:55:39;9.00;99.90
23991;DHT22;12205;50.600;4.608;2022-11-04T00:58:06;8.90;99.90
23991;DHT22;12205;50.600;4.608;2022-11-04T01:00:34;8.90;99.90
23991;DHT22;12205;50.600;4.608;2022-11-04T01:03:01;8.90;99.90
23991;DHT22;12205;50.600;4.608;2022-11-04T01:05:28;8.80;99.90
23991;DHT22;12205;50.600;4.608;2022-11-04T01:07:56;8.90;99.90
23991;DHT22;12205;50.600;4.608;2022-11-04T01:10:25;8.90;99.90
23991;DHT22;12205;50.600;4.608;2022-11-04T01:12:52;8.90;99.90
23991;DHT22;12205;50.600;4.608;2022-11-04T01:15:19;8.80;99.90
23991;DHT22;12205;50.600;4.608;2022-11-04T01:17:47;8.80;99.90
23991;DHT22;12205;50.600;4.608;2022-11-04T01:20:14;8.80;99.90
23991;DHT22;12205;50.600;4.608;2022-11-04T01:22:42;8.90;99.90
23991;DHT22;12205;50.600;4.608;2022-11-04T01:25:09;8.90;99.90
23991;DHT22;12205;50.600;4.608;2022-11-04T01:27:38;8.90;99.90
23991;DHT22;12205;50.600;4.608;2022-11-04T01:30:06;8.80;99.90
23991;DHT22;12205;50.600;4.608;2022-11-04T01:32:34;8.80;99.90
23991;DHT22;12205;50.600;4.608;2022-11-04T01:35:02;8.80;99.90
23991;DHT22;12205;50.600;4.608;2022-11-04T01:37:30;8.90;99.90
23991;DHT22;12205;50.600;4.608;2022-11-04T01:39:57;8.80;99.90
23991;DHT22;12205;50.600;4.608;2022-11-04T01:42:25;8.80;99.90
23991;DHT22;12205;50.600;4.608;2022-11-04T01:44:56;8.80;99.90
23991;DHT22;12205;50.600;4.608;2022-11-04T01:47:33;8.80;99.90
23991;DHT22;12205;50.600;4.608;2022-11-04T01:50:08;8.90;99.90
23991;DHT22;12205;50.600;4.608;2022-11-04T01:52:43;8.90;99.90
23991;DHT22;12205;50.600;4.608;2022-11-04T01:55:16;8.90;99.90
23991;DHT22;12205;50.600;4.608;2022-11-04T01:57:48;8.90;99.90
23991;DHT22;12205;50.600;4.608;2022-11-04T02:00:20;8.90;99.90
23991;DHT22;12205;50.600;4.608;2022-11-04T02:02:53;8.90;99.90
23991;DHT22;12205;50.600;4.608;2022-11-04T02:05:24;8.90;99.90
23991;DHT22;12205;50.600;4.608;2022-11-04T02:07:53;8.90;99.90
23991;DHT22;12205;50.600;4.608;2022-11-04T02:10:26;9.00;99.90
23991;DHT22;12205;50.600;4.608;2022-11-04T02:12:55;9.00;99.90
23991;DHT22;12205;50.600;4.608;2022-11-04T02:15:34;9.00;99.90
23991;DHT22;12205;50.600;4.608;2022-11-04T02:18:30;9.00;99.90
23991;DHT22;12205;50.600;4.608;2022-11-04T02:24:55;9.10;99.90
23991;DHT22;12205;50.600;4.608;2022-11-04T02:27:37;9.10;99.90
23991;DHT22;12205;50.600;4.608;2022-11-04T02:30:19;9.10;99.90
23991;DHT22;12205;50.600;4.608;2022-11-04T02:33:04;9.20;99.90
23991;DHT22;12205;50.600;4.608;2022-11-04T02:35:53;9.20;99.90
23991;DHT22;12205;50.600;4.608;2022-11-04T02:38:33;9.20;99.90
23991;DHT22;12205;50.600;4.608;2022-11-04T02:41:13;9.20;99.90
23991;DHT22;12205;50.600;4.608;2022-11-04T02:43:56;9.20;99.90
23991;DHT22;12205;50.600;4.608;2022-11-04T02:46:36;9.30;99.90
23991;DHT22;12205;50.600;4.608;2022-11-04T02:49:09;9.30;99.90
23991;DHT22;12205;50.600;4.608;2022-11-04T02:51:41;9.30;99.90
23991;DHT22;12205;50.600;4.608;2022-11-04T02:54:18;9.30;99.90
23991;DHT22;12205;50.600;4.608;2022-11-04T02:56:50;9.40;99.90
23991;DHT22;12205;50.600;4.608;2022-11-04T02:59:25;9.40;99.90
23991;DHT22;12205;50.600;4.608;2022-11-04T03:02:04;9.40;99.90
23991;DHT22;12205;50.600;4.608;2022-11-04T03:04:38;9.40;99.90
23991;DHT22;12205;50.600;4.608;2022-11-04T03:07:11;9.40;99.90
23991;DHT22;12205;50.600;4.608;2022-11-04T03:09:45;9.40;99.90
23991;DHT22;12205;50.600;4.608;2022-11-04T03:12:19;9.40;99.90
23991;DHT22;12205;50.600;4.608;2022-11-04T03:14:59;9.40;99.90
23991;DHT22;12205;50.600;4.608;2022-11-04T03:17:33;9.50;99.90
23991;DHT22;12205;50.600;4.608;2022-11-04T03:20:10;9.40;99.90
23991;DHT22;12205;50.600;4.608;2022-11-04T03:22:43;9.50;99.90
23991;DHT22;12205;50.600;4.608;2022-11-04T03:25:11;9.50;99.90
23991;DHT22;12205;50.600;4.608;2022-11-04T03:27:44;9.50;99.90
23991;DHT22;12205;50.600;4.608;2022-11-04T03:30:16;9.50;99.90
23991;DHT22;12205;50.600;4.608;2022-11-04T03:32:53;9.50;99.90
23991;DHT22;12205;50.600;4.608;2022-11-04T03:35:26;9.50;99.90
23991;DHT22;12205;50.600;4.608;2022-11-04T03:37:54;9.50;99.90
23991;DHT22;12205;50.600;4.608;2022-11-04T03:40:23;9.60;99.90
23991;DHT22;12205;50.600;4.608;2022-11-04T03:42:55;9.70;99.90
23991;DHT22;12205;50.600;4.608;2022-11-04T03:45:27;9.70;99.90
23991;DHT22;12205;50.600;4.608;2022-11-04T03:47:56;9.80;99.90
23991;DHT22;12205;50.600;4.608;2022-11-04T03:50:27;9.80;99.90
23991;DHT22;12205;50.600;4.608;2022-11-04T03:52:56;9.80;99.90
23991;DHT22;12205;50.600;4.608;2022-11-04T03:55:30;9.90;99.90
23991;DHT22;12205;50.600;4.608;2022-11-04T03:58:09;9.90;99.90
23991;DHT22;12205;50.600;4.608;2022-11-04T04:00:49;10.00;99.90
23991;DHT22;12205;50.600;4.608;2022-11-04T04:03:28;10.00;99.90
23991;DHT22;12205;50.600;4.608;2022-11-04T04:06:04;10.00;99.90
23991;DHT22;12205;50.600;4.608;2022-11-04T04:08:38;10.00;99.90
23991;DHT22;12205;50.600;4.608;2022-11-04T04:11:15;10.10;99.90
23991;DHT22;12205;50.600;4.608;2022-11-04T04:13:53;10.10;99.90
23991;DHT22;12205;50.600;4.608;2022-11-04T04:16:31;10.10;99.90
23991;DHT22;12205;50.600;4.608;2022-11-04T04:19:06;10.10;99.90
23991;DHT22;12205;50.600;4.608;2022-11-04T04:21:41;10.20;99.90
23991;DHT22;12205;50.600;4.608;2022-11-04T04:24:14;10.20;99.90
23991;DHT22;12205;50.600;4.608;2022-11-04T04:26:59;10.20;99.90
23991;DHT22;12205;50.600;4.608;2022-11-04T04:29:48;10.30;99.90
23991;DHT22;12205;50.600;4.608;2022-11-04T04:32:20;10.30;99.90
23991;DHT22;12205;50.600;4.608;2022-11-04T04:34:51;10.30;99.90
23991;DHT22;12205;50.600;4.608;2022-11-04T04:37:41;10.30;99.90
23991;DHT22;12205;50.600;4.608;2022-11-04T04:40:14;10.30;99.90
23991;DHT22;12205;50.600;4.608;2022-11-04T04:43:02;10.30;99.90
23991;DHT22;12205;50.600;4.608;2022-11-04T04:45:51;10.30;99.90
23991;DHT22;12205;50.600;4.608;2022-11-04T04:48:19;10.40;99.90
23991;DHT22;12205;50.600;4.608;2022-11-04T04:50:50;10.40;99.90
23991;DHT22;12205;50.600;4.608;2022-11-04T04:53:22;10.30;99.90
23991;DHT22;12205;50.600;4.608;2022-11-04T04:55:49;10.40;99.90
23991;DHT22;12205;50.600;4.608;2022-11-04T04:58:16;10.40;99.90
23991;DHT22;12205;50.600;4.608;2022-11-04T05:00:44;10.40;99.90
23991;DHT22;12205;50.600;4.608;2022-11-04T05:03:11;10.50;99.90
23991;DHT22;12205;50.600;4.608;2022-11-04T05:05:38;10.50;99.90
23991;DHT22;12205;50.600;4.608;2022-11-04T05:08:07;10.50;99.90
23991;DHT22;12205;50.600;4.608;2022-11-04T05:10:36;10.50;99.90
23991;DHT22;12205;50.600;4.608;2022-11-04T05:13:04;10.50;99.90
23991;DHT22;12205;50.600;4.608;2022-11-04T05:15:49;10.50;99.90
23991;DHT22;12205;50.600;4.608;2022-11-04T05:18:18;10.50;99.90
23991;DHT22;12205;50.600;4.608;2022-11-04T05:20:46;10.50;99.90
23991;DHT22;12205;50.600;4.608;2022-11-04T05:23:15;10.50;99.90
23991;DHT22;12205;50.600;4.608;2022-11-04T05:25:42;10.50;99.90
23991;DHT22;12205;50.600;4.608;2022-11-04T05:28:09;10.50;99.90
23991;DHT22;12205;50.600;4.608;2022-11-04T05:30:37;10.40;99.90
23991;DHT22;12205;50.600;4.608;2022-11-04T05:33:04;10.40;99.90
23991;DHT22;12205;50.600;4.608;2022-11-04T05:35:32;10.40;99.90
23991;DHT22;12205;50.600;4.608;2022-11-04T05:38:00;10.50;99.90
23991;DHT22;12205;50.600;4.608;2022-11-04T05:40:29;10.40;99.90
23991;DHT22;12205;50.600;4.608;2022-11-04T05:42:57;10.40;99.90
23991;DHT22;12205;50.600;4.608;2022-11-04T05:45:25;10.40;99.90
23991;DHT22;12205;50.600;4.608;2022-11-04T05:47:58;10.40;99.90
23991;DHT22;12205;50.600;4.608;2022-11-04T05:50:25;10.40;99.90
23991;DHT22;12205;50.600;4.608;2022-11-04T05:52:52;10.40;99.90
23991;DHT22;12205;50.600;4.608;2022-11-04T05:55:23;10.40;99.90
23991;DHT22;12205;50.600;4.608;2022-11-04T05:57:52;10.40;99.90
23991;DHT22;12205;50.600;4.608;2022-11-04T06:00:20;10.40;99.90
23991;DHT22;12205;50.600;4.608;2022-11-04T06:02:47;10.40;99.90
23991;DHT22;12205;50.600;4.608;2022-11-04T06:05:15;10.40;99.90
23991;DHT22;12205;50.600;4.608;2022-11-04T06:07:42;10.40;99.90
23991;DHT22;12205;50.600;4.608;2022-11-04T06:10:13;10.40;99.90
23991;DHT22;12205;50.600;4.608;2022-11-04T06:12:53;10.50;99.90
23991;DHT22;12205;50.600;4.608;2022-11-04T06:15:21;10.50;99.90
23991;DHT22;12205;50.600;4.608;2022-11-04T06:17:49;10.50;99.90
23991;DHT22;12205;50.600;4.608;2022-11-04T06:20:16;10.50;99.90
23991;DHT22;12205;50.600;4.608;2022-11-04T06:22:44;10.50;99.90
23991;DHT22;12205;50.600;4.608;2022-11-04T06:25:17;10.50;99.90
23991;DHT22;12205;50.600;4.608;2022-11-04T06:27:49;10.50;99.90
23991;DHT22;12205;50.600;4.608;2022-11-04T06:30:17;10.50;99.90
23991;DHT22;12205;50.600;4.608;2022-11-04T06:32:45;10.50;99.90
23991;DHT22;12205;50.600;4.608;2022-11-04T06:35:13;10.50;99.90
23991;DHT22;12205;50.600;4.608;2022-11-04T06:37:40;10.50;99.90
23991;DHT22;12205;50.600;4.608;2022-11-04T06:40:08;10.50;99.90
23991;DHT22;12205;50.600;4.608;2022-11-04T06:42:36;10.50;99.90
23991;DHT22;12205;50.600;4.608;2022-11-04T06:45:04;10.50;99.90
23991;DHT22;12205;50.600;4.608;2022-11-04T06:47:33;10.50;99.90
23991;DHT22;12205;50.600;4.608;2022-11-04T06:50:00;10.50;99.90
23991;DHT22;12205;50.600;4.608;2022-11-04T06:52:28;10.50;99.90
23991;DHT22;12205;50.600;4.608;2022-11-04T06:54:55;10.50;99.90
23991;DHT22;12205;50.600;4.608;2022-11-04T06:57:22;10.50;99.90
23991;DHT22;12205;50.600;4.608;2022-11-04T06:59:49;10.50;99.90
23991;DHT22;12205;50.600;4.608;2022-11-04T07:02:17;10.50;99.90
23991;DHT22;12205;50.600;4.608;2022-11-04T07:04:45;10.50;99.90
23991;DHT22;12205;50.600;4.608;2022-11-04T07:07:13;10.50;99.90
23991;DHT22;12205;50.600;4.608;2022-11-04T07:09:40;10.60;99.90
23991;DHT22;12205;50.600;4.608;2022-11-04T07:12:11;10.60;99.90
23991;DHT22;12205;50.600;4.608;2022-11-04T07:14:38;10.60;99.90
23991;DHT22;12205;50.600;4.608;2022-11-04T07:17:05;10.60;99.90
23991;DHT22;12205;50.600;4.608;2022-11-04T07:19:33;10.60;99.90
23991;DHT22;12205;50.600;4.608;2022-11-04T07:22:02;10.70;99.90
23991;DHT22;12205;50.600;4.608;2022-11-04T07:24:29;10.70;99.90
23991;DHT22;12205;50.600;4.608;2022-11-04T07:26:56;10.70;99.90
23991;DHT22;12205;50.600;4.608;2022-11-04T07:29:23;10.70;99.90
23991;DHT22;12205;50.600;4.608;2022-11-04T07:31:51;10.70;99.90
23991;DHT22;12205;50.600;4.608;2022-11-04T07:34:18;10.70;99.90
23991;DHT22;12205;50.600;4.608;2022-11-04T07:36:46;10.80;99.90
23991;DHT22;12205;50.600;4.608;2022-11-04T07:39:15;10.80;99.90
23991;DHT22;12205;50.600;4.608;2022-11-04T07:41:42;10.90;99.90
23991;DHT22;12205;50.600;4.608;2022-11-04T07:44:10;10.90;99.90
23991;DHT22;12205;50.600;4.608;2022-11-04T07:46:38;10.90;99.90
23991;DHT22;12205;50.600;4.608;2022-11-04T07:49:06;10.90;99.90
23991;DHT22;12205;50.600;4.608;2022-11-04T07:51:33;11.00;99.90
23991;DHT22;12205;50.600;4.608;2022-11-04T07:54:01;11.00;99.90
23991;DHT22;12205;50.600;4.608;2022-11-04T07:56:30;11.10;99.90
23991;DHT22;12205;50.600;4.608;2022-11-04T07:58:57;11.10;99.90
23991;DHT22;12205;50.600;4.608;2022-11-04T08:01:25;11.10;99.90
23991;DHT22;12205;50.600;4.608;2022-11-04T08:03:52;11.10;99.90
23991;DHT22;12205;50.600;4.608;2022-11-04T08:06:20;11.10;99.90
23991;DHT22;12205;50.600;4.608;2022-11-04T08:08:47;11.20;99.90
23991;DHT22;12205;50.600;4.608;2022-11-04T08:11:20;11.20;99.90
23991;DHT22;12205;50.600;4.608;2022-11-04T08:13:54;11.20;99.90
23991;DHT22;12205;50.600;4.608;2022-11-04T08:16:23;11.30;99.90
23991;DHT22;12205;50.600;4.608;2022-11-04T08:18:51;11.30;99.90
23991;DHT22;12205;50.600;4.608;2022-11-04T08:21:19;11.40;99.90
23991;DHT22;12205;50.600;4.608;2022-11-04T08:23:47;11.40;99.90
23991;DHT22;12205;50.600;4.608;2022-11-04T08:26:17;11.40;99.90
23991;DHT22;12205;50.600;4.608;2022-11-04T08:28:48;11.40;99.90
23991;DHT22;12205;50.600;4.608;2022-11-04T08:31:20;11.50;99.90
23991;DHT22;12205;50.600;4.608;2022-11-04T08:33:50;11.50;99.90
23991;DHT22;12205;50.600;4.608;2022-11-04T08:36:19;11.50;99.90
23991;DHT22;12205;50.600;4.608;2022-11-04T08:38:48;11.60;99.90
23991;DHT22;12205;50.600;4.608;2022-11-04T08:41:19;11.60;99.90
23991;DHT22;12205;50.600;4.608;2022-11-04T08:43:48;11.70;99.90
23991;DHT22;12205;50.600;4.608;2022-11-04T08:46:17;11.70;99.90
23991;DHT22;12205;50.600;4.608;2022-11-04T08:48:45;11.80;99.90
23991;DHT22;12205;50.600;4.608;2022-11-04T08:51:15;11.80;99.90
23991;DHT22;12205;50.600;4.608;2022-11-04T08:53:45;11.80;99.90
23991;DHT22;12205;50.600;4.608;2022-11-04T08:56:15;11.90;99.90
23991;DHT22;12205;50.600;4.608;2022-11-04T08:58:45;12.00;99.90
23991;DHT22;12205;50.600;4.608;2022-11-04T09:01:12;12.00;99.90
23991;DHT22;12205;50.600;4.608;2022-11-04T09:03:42;12.10;99.90
23991;DHT22;12205;50.600;4.608;2022-11-04T09:06:12;12.10;99.90
23991;DHT22;12205;50.600;4.608;2022-11-04T09:08:42;12.10;99.90
23991;DHT22;12205;50.600;4.608;2022-11-04T09:11:11;12.20;99.90
23991;DHT22;12205;50.600;4.608;2022-11-04T09:13:41;12.20;99.90
23991;DHT22;12205;50.600;4.608;2022-11-04T09:16:10;12.20;99.90
23991;DHT22;12205;50.600;4.608;2022-11-04T09:18:39;12.30;99.90
23991;DHT22;12205;50.600;4.608;2022-11-04T09:21:09;12.30;99.90
23991;DHT22;12205;50.600;4.608;2022-11-04T09:23:37;12.40;99.90
23991;DHT22;12205;50.600;4.608;2022-11-04T09:26:07;12.40;99.90
23991;DHT22;12205;50.600;4.608;2022-11-04T09:28:35;12.50;99.90
23991;DHT22;12205;50.600;4.608;2022-11-04T09:31:07;12.60;99.90
23991;DHT22;12205;50.600;4.608;2022-11-04T09:33:36;12.70;99.90
23991;DHT22;12205;50.600;4.608;2022-11-04T09:36:03;12.70;99.90
23991;DHT22;12205;50.600;4.608;2022-11-04T09:38:32;12.70;99.90
23991;DHT22;12205;50.600;4.608;2022-11-04T09:41:00;12.80;99.90
23991;DHT22;12205;50.600;4.608;2022-11-04T09:43:35;12.90;99.90
23991;DHT22;12205;50.600;4.608;2022-11-04T09:46:11;13.00;99.90
23991;DHT22;12205;50.600;4.608;2022-11-04T09:48:42;13.10;99.90
23991;DHT22;12205;50.600;4.608;2022-11-04T09:51:15;13.00;99.90
23991;DHT22;12205;50.600;4.608;2022-11-04T09:53:47;13.00;99.90
23991;DHT22;12205;50.600;4.608;2022-11-04T09:56:20;13.10;99.90
23991;DHT22;12205;50.600;4.608;2022-11-04T09:58:49;13.00;99.90
23991;DHT22;12205;50.600;4.608;2022-11-04T10:01:25;13.00;99.90
23991;DHT22;12205;50.600;4.608;2022-11-04T10:04:14;13.10;99.90
23991;DHT22;12205;50.600;4.608;2022-11-04T10:07:00;13.10;99.90
23991;DHT22;12205;50.600;4.608;2022-11-04T10:09:46;13.30;99.90
23991;DHT22;12205;50.600;4.608;2022-11-04T10:12:39;13.30;99.90
23991;DHT22;12205;50.600;4.608;2022-11-04T10:18:33;13.30;99.90
23991;DHT22;12205;50.600;4.608;2022-11-04T10:21:31;13.30;99.90
23991;DHT22;12205;50.600;4.608;2022-11-04T10:24:17;13.30;99.90
23991;DHT22;12205;50.600;4.608;2022-11-04T10:26:52;13.20;99.90
23991;DHT22;12205;50.600;4.608;2022-11-04T10:29:27;13.20;99.90
23991;DHT22;12205;50.600;4.608;2022-11-04T10:32:03;13.20;99.90
23991;DHT22;12205;50.600;4.608;2022-11-04T10:34:42;13.20;99.90
23991;DHT22;12205;50.600;4.608;2022-11-04T10:37:15;13.20;99.90
23991;DHT22;12205;50.600;4.608;2022-11-04T10:39:45;13.10;99.90
23991;DHT22;12205;50.600;4.608;2022-11-04T10:42:16;13.10;99.90
23991;DHT22;12205;50.600;4.608;2022-11-04T10:44:47;13.10;99.90
23991;DHT22;12205;50.600;4.608;2022-11-04T10:47:31;13.00;99.90
23991;DHT22;12205;50.600;4.608;2022-11-04T10:50:29;12.80;99.90
23991;DHT22;12205;50.600;4.608;2022-11-04T10:53:11;12.60;99.90
23991;DHT22;12205;50.600;4.608;2022-11-04T10:55:46;12.70;99.90
23991;DHT22;12205;50.600;4.608;2022-11-04T10:58:23;12.70;99.90
23991;DHT22;12205;50.600;4.608;2022-11-04T11:00:54;12.80;99.90
23991;DHT22;12205;50.600;4.608;2022-11-04T11:03:29;12.80;99.90
23991;DHT22;12205;50.600;4.608;2022-11-04T11:06:13;12.70;99.90
23991;DHT22;12205;50.600;4.608;2022-11-04T11:08:45;12.50;99.90
23991;DHT22;12205;50.600;4.608;2022-11-04T11:11:13;12.20;99.90
23991;DHT22;12205;50.600;4.608;2022-11-04T11:13:44;12.00;99.90
23991;DHT22;12205;50.600;4.608;2022-11-04T11:16:17;11.90;99.90
23991;DHT22;12205;50.600;4.608;2022-11-04T11:19:10;12.00;99.90
23991;DHT22;12205;50.600;4.608;2022-11-04T11:21:43;12.00;99.90
23991;DHT22;12205;50.600;4.608;2022-11-04T11:24:14;12.00;99.90
23991;DHT22;12205;50.600;4.608;2022-11-04T11:26:46;11.80;99.90
23991;DHT22;12205;50.600;4.608;2022-11-04T11:29:23;11.70;99.90
23991;DHT22;12205;50.600;4.608;2022-11-04T11:31:54;11.70;99.90
23991;DHT22;12205;50.600;4.608;2022-11-04T11:34:25;11.70;99.90
23991;DHT22;12205;50.600;4.608;2022-11-04T11:36:59;11.80;99.90
23991;DHT22;12205;50.600;4.608;2022-11-04T11:39:31;11.90;99.90
23991;DHT22;12205;50.600;4.608;2022-11-04T11:42:01;12.00;99.90
23991;DHT22;12205;50.600;4.608;2022-11-04T11:44:34;11.90;99.90
23991;DHT22;12205;50.600;4.608;2022-11-04T11:47:17;11.90;99.90
23991;DHT22;12205;50.600;4.608;2022-11-04T11:50:04;11.90;99.90
23991;DHT22;12205;50.600;4.608;2022-11-04T11:52:34;12.00;99.90
23991;DHT22;12205;50.600;4.608;2022-11-04T11:55:06;12.10;99.90
23991;DHT22;12205;50.600;4.608;2022-11-04T11:57:46;12.10;99.90
23991;DHT22;12205;50.600;4.608;2022-11-04T12:00:24;12.10;99.90
23991;DHT22;12205;50.600;4.608;2022-11-04T12:03:01;12.10;99.90
23991;DHT22;12205;50.600;4.608;2022-11-04T12:05:41;12.00;99.90
23991;DHT22;12205;50.600;4.608;2022-11-04T12:08:35;12.00;99.90
23991;DHT22;12205;50.600;4.608;2022-11-04T12:11:13;12.00;99.90
23991;DHT22;12205;50.600;4.608;2022-11-04T12:13:49;12.00;99.90
23991;DHT22;12205;50.600;4.608;2022-11-04T12:16:31;12.00;99.90
23991;DHT22;12205;50.600;4.608;2022-11-04T12:19:21;12.10;99.90
23991;DHT22;12205;50.600;4.608;2022-11-04T12:22:06;12.10;99.90
23991;DHT22;12205;50.600;4.608;2022-11-04T12:24:45;12.10;99.90
23991;DHT22;12205;50.600;4.608;2022-11-04T12:27:25;12.10;99.90
23991;DHT22;12205;50.600;4.608;2022-11-04T12:30:06;12.10;99.90
23991;DHT22;12205;50.600;4.608;2022-11-04T12:32:47;12.20;99.90
23991;DHT22;12205;50.600;4.608;2022-11-04T12:35:31;12.30;99.90
23991;DHT22;12205;50.600;4.608;2022-11-04T12:38:19;12.30;99.90
23991;DHT22;12205;50.600;4.608;2022-11-04T12:41:06;12.30;99.90
23991;DHT22;12205;50.600;4.608;2022-11-04T12:43:53;12.30;99.90
23991;DHT22;12205;50.600;4.608;2022-11-04T12:46:36;12.40;99.90
23991;DHT22;12205;50.600;4.608;2022-11-04T12:49:34;12.50;99.90
23991;DHT22;12205;50.600;4.608;2022-11-04T12:52:33;12.60;99.90
23991;DHT22;12205;50.600;4.608;2022-11-04T12:55:25;12.70;99.90
23991;DHT22;12205;50.600;4.608;2022-11-04T12:58:10;12.80;99.90
23991;DHT22;12205;50.600;4.608;2022-11-04T13:00:47;12.80;99.90
23991;DHT22;12205;50.600;4.608;2022-11-04T13:03:25;12.70;99.90
23991;DHT22;12205;50.600;4.608;2022-11-04T13:06:02;12.70;99.90
23991;DHT22;12205;50.600;4.608;2022-11-04T13:08:38;12.80;99.90
23991;DHT22;12205;50.600;4.608;2022-11-04T13:11:11;13.00;99.90
23991;DHT22;12205;50.600;4.608;2022-11-04T13:13:57;13.00;99.90
23991;DHT22;12205;50.600;4.608;2022-11-04T13:16:31;13.10;99.90
23991;DHT22;12205;50.600;4.608;2022-11-04T13:19:01;13.40;99.90
23991;DHT22;12205;50.600;4.608;2022-11-04T13:21:35;13.60;99.90
23991;DHT22;12205;50.600;4.608;2022-11-04T13:24:10;13.70;99.90
23991;DHT22;12205;50.600;4.608;2022-11-04T13:26:47;13.90;99.90
23991;DHT22;12205;50.600;4.608;2022-11-04T13:29:17;14.10;99.90
23991;DHT22;12205;50.600;4.608;2022-11-04T13:31:51;14.00;99.90
23991;DHT22;12205;50.600;4.608;2022-11-04T13:34:33;13.80;99.90
23991;DHT22;12205;50.600;4.608;2022-11-04T13:37:16;13.70;99.90
23991;DHT22;12205;50.600;4.608;2022-11-04T13:39:51;13.70;99.90
23991;DHT22;12205;50.600;4.608;2022-11-04T13:42:54;13.60;99.90
23991;DHT22;12205;50.600;4.608;2022-11-04T13:45:55;13.50;99.90
23991;DHT22;12205;50.600;4.608;2022-11-04T13:48:25;13.40;99.90
23991;DHT22;12205;50.600;4.608;2022-11-04T13:50:58;13.20;99.90
23991;DHT22;12205;50.600;4.608;2022-11-04T13:53:42;13.20;99.90
23991;DHT22;12205;50.600;4.608;2022-11-04T13:56:26;13.10;99.90
23991;DHT22;12205;50.600;4.608;2022-11-04T13:58:57;12.90;99.90
23991;DHT22;12205;50.600;4.608;2022-11-04T14:01:29;12.60;99.90
23991;DHT22;12205;50.600;4.608;2022-11-04T14:04:05;12.50;99.90
23991;DHT22;12205;50.600;4.608;2022-11-04T14:06:55;12.40;99.90
23991;DHT22;12205;50.600;4.608;2022-11-04T14:09:51;12.30;99.90
23991;DHT22;12205;50.600;4.608;2022-11-04T14:12:45;12.30;99.90
23991;DHT22;12205;50.600;4.608;2022-11-04T14:18:28;12.40;99.90
23991;DHT22;12205;50.600;4.608;2022-11-04T14:21:03;12.40;99.90
23991;DHT22;12205;50.600;4.608;2022-11-04T14:23:35;12.40;99.90
23991;DHT22;12205;50.600;4.608;2022-11-04T14:26:06;12.30;99.90
23991;DHT22;12205;50.600;4.608;2022-11-04T14:28:37;12.20;99.90
23991;DHT22;12205;50.600;4.608;2022-11-04T14:31:09;12.20;99.90
23991;DHT22;12205;50.600;4.608;2022-11-04T14:33:40;12.10;99.90
23991;DHT22;12205;50.600;4.608;2022-11-04T14:36:26;12.10;99.90
23991;DHT22;12205;50.600;4.608;2022-11-04T14:39:02;12.10;99.90
23991;DHT22;12205;50.600;4.608;2022-11-04T14:41:54;12.00;99.90
23991;DHT22;12205;50.600;4.608;2022-11-04T14:44:32;11.90;99.90
23991;DHT22;12205;50.600;4.608;2022-11-04T14:47:12;11.90;99.90
23991;DHT22;12205;50.600;4.608;2022-11-04T14:49:45;11.90;99.90
23991;DHT22;12205;50.600;4.608;2022-11-04T14:52:26;11.90;99.90
23991;DHT22;12205;50.600;4.608;2022-11-04T14:55:05;11.90;99.90
23991;DHT22;12205;50.600;4.608;2022-11-04T14:57:42;11.80;99.90
23991;DHT22;12205;50.600;4.608;2022-11-04T15:00:29;11.70;99.90
23991;DHT22;12205;50.600;4.608;2022-11-04T15:03:12;11.70;99.90
23991;DHT22;12205;50.600;4.608;2022-11-04T15:05:46;11.70;99.90
23991;DHT22;12205;50.600;4.608;2022-11-04T15:08:32;11.70;99.90
23991;DHT22;12205;50.600;4.608;2022-11-04T15:11:05;11.70;99.90
23991;DHT22;12205;50.600;4.608;2022-11-04T15:13:44;11.70;99.90
23991;DHT22;12205;50.600;4.608;2022-11-04T15:16:16;11.70;99.90
23991;DHT22;12205;50.600;4.608;2022-11-04T15:18:46;11.70;99.90
23991;DHT22;12205;50.600;4.608;2022-11-04T15:21:15;11.80;99.90
23991;DHT22;12205;50.600;4.608;2022-11-04T15:23:45;11.80;99.90
23991;DHT22;12205;50.600;4.608;2022-11-04T15:26:18;11.80;99.90
23991;DHT22;12205;50.600;4.608;2022-11-04T15:28:50;11.70;99.90
23991;DHT22;12205;50.600;4.608;2022-11-04T15:31:20;11.70;99.90
23991;DHT22;12205;50.600;4.608;2022-11-04T15:33:49;11.60;99.90
23991;DHT22;12205;50.600;4.608;2022-11-04T15:36:20;11.50;99.90
23991;DHT22;12205;50.600;4.608;2022-11-04T15:38:54;11.50;99.90
23991;DHT22;12205;50.600;4.608;2022-11-04T15:41:26;11.40;99.90
23991;DHT22;12205;50.600;4.608;2022-11-04T15:44:20;11.30;99.90
23991;DHT22;12205;50.600;4.608;2022-11-04T15:46:53;11.30;99.90
23991;DHT22;12205;50.600;4.608;2022-11-04T15:49:23;11.20;99.90
23991;DHT22;12205;50.600;4.608;2022-11-04T15:51:54;11.10;99.90
23991;DHT22;12205;50.600;4.608;2022-11-04T15:54:27;11.10;99.90
23991;DHT22;12205;50.600;4.608;2022-11-04T15:56:59;11.10;99.90
23991;DHT22;12205;50.600;4.608;2022-11-04T15:59:32;11.10;99.90
23991;DHT22;12205;50.600;4.608;2022-11-04T16:02:04;10.90;99.90
23991;DHT22;12205;50.600;4.608;2022-11-04T16:04:43;10.90;99.90
23991;DHT22;12205;50.600;4.608;2022-11-04T16:07:21;10.80;99.90
23991;DHT22;12205;50.600;4.608;2022-11-04T16:09:51;10.70;99.90
23991;DHT22;12205;50.600;4.608;2022-11-04T16:12:28;10.60;99.90
23991;DHT22;12205;50.600;4.608;2022-11-04T16:15:02;10.60;99.90
23991;DHT22;12205;50.600;4.608;2022-11-04T16:17:30;10.50;99.90
23991;DHT22;12205;50.600;4.608;2022-11-04T16:20:00;10.50;99.90
23991;DHT22;12205;50.600;4.608;2022-11-04T16:22:33;10.40;99.90
23991;DHT22;12205;50.600;4.608;2022-11-04T16:25:06;10.40;99.90
23991;DHT22;12205;50.600;4.608;2022-11-04T16:27:36;10.40;99.90